sensor_id;sensor_type;location;lat;lon;timestamp;P1;durP1;ratioP1;P2;durP2;ratioP2
26908;SDS011;14477;51.038;4.588;2024-01-16T00:01:16;4.50;;;1.63;;
26908;SDS011;14477;51.038;4.588;2024-01-16T00:03:43;3.53;;;1.20;;
26908;SDS011;14477;51.038;4.588;2024-01-16T00:06:09;3.40;;;1.50;;
26908;SDS011;14477;51.038;4.588;2024-01-16T00:08:35;2.83;;;1.20;;
26908;SDS011;14477;51.038;4.588;2024-01-16T00:11:01;2.95;;;1.45;;
26908;SDS011;14477;51.038;4.588;2024-01-16T00:13:29;3.40;;;1.58;;
26908;SDS011;14477;51.038;4.588;2024-01-16T00:15:54;2.57;;;1.30;;
26908;SDS011;14477;51.038;4.588;2024-01-16T00:18:22;3.78;;;1.20;;
26908;SDS011;14477;51.038;4.588;2024-01-16T00:20:47;2.70;;;1.45;;
26908;SDS011;14477;51.038;4.588;2024-01-16T00:23:14;3.60;;;1.30;;
26908;SDS011;14477;51.038;4.588;2024-01-16T00:25:39;4.37;;;1.13;;
26908;SDS011;14477;51.038;4.588;2024-01-16T00:28:06;3.85;;;1.50;;
26908;SDS011;14477;51.038;4.588;2024-01-16T00:30:32;1.88;;;1.08;;
26908;SDS011;14477;51.038;4.588;2024-01-16T00:32:58;2.70;;;1.50;;
26908;SDS011;14477;51.038;4.588;2024-01-16T00:35:24;4.13;;;1.67;;
26908;SDS011;14477;51.038;4.588;2024-01-16T00:37:50;4.65;;;1.70;;
26908;SDS011;14477;51.038;4.588;2024-01-16T00:40:16;3.37;;;1.43;;
26908;SDS011;14477;51.038;4.588;2024-01-16T00:42:42;3.42;;;1.40;;
26908;SDS011;14477;51.038;4.588;2024-01-16T00:45:08;3.27;;;1.13;;
26908;SDS011;14477;51.038;4.588;2024-01-16T00:47:34;3.75;;;1.50;;
26908;SDS011;14477;51.038;4.588;2024-01-16T00:49:59;2.47;;;1.30;;
26908;SDS011;14477;51.038;4.588;2024-01-16T00:52:26;3.03;;;1.50;;
26908;SDS011;14477;51.038;4.588;2024-01-16T00:54:52;2.72;;;1.40;;
26908;SDS011;14477;51.038;4.588;2024-01-16T00:57:18;3.10;;;1.23;;
26908;SDS011;14477;51.038;4.588;2024-01-16T00:59:45;4.18;;;1.30;;
26908;SDS011;14477;51.038;4.588;2024-01-16T01:02:14;3.38;;;1.30;;
26908;SDS011;14477;51.038;4.588;2024-01-16T01:04:40;2.83;;;1.40;;
26908;SDS011;14477;51.038;4.588;2024-01-16T01:07:07;3.28;;;1.35;;
26908;SDS011;14477;51.038;4.588;2024-01-16T01:09:33;2.63;;;1.30;;
26908;SDS011;14477;51.038;4.588;2024-01-16T01:11:59;3.15;;;1.30;;
26908;SDS011;14477;51.038;4.588;2024-01-16T01:14:25;5.03;;;1.50;;
26908;SDS011;14477;51.038;4.588;2024-01-16T01:16:53;4.13;;;1.30;;
26908;SDS011;14477;51.038;4.588;2024-01-16T01:19:19;3.67;;;1.40;;
26908;SDS011;14477;51.038;4.588;2024-01-16T01:21:45;2.78;;;1.52;;
26908;SDS011;14477;51.038;4.588;2024-01-16T01:24:11;4.03;;;1.70;;
26908;SDS011;14477;51.038;4.588;2024-01-16T01:26:37;3.22;;;1.33;;
26908;SDS011;14477;51.038;4.588;2024-01-16T01:29:02;3.60;;;1.57;;
26908;SDS011;14477;51.038;4.588;2024-01-16T01:31:28;5.13;;;1.75;;
26908;SDS011;14477;51.038;4.588;2024-01-16T01:33:54;2.93;;;1.40;;
26908;SDS011;14477;51.038;4.588;2024-01-16T01:36:20;3.60;;;1.25;;
26908;SDS011;14477;51.038;4.588;2024-01-16T01:38:45;2.07;;;1.00;;
26908;SDS011;14477;51.038;4.588;2024-01-16T01:41:11;2.13;;;1.08;;
26908;SDS011;14477;51.038;4.588;2024-01-16T01:43:37;3.70;;;1.20;;
26908;SDS011;14477;51.038;4.588;2024-01-16T01:48:40;2.95;;;1.30;;
26908;SDS011;14477;51.038;4.588;2024-01-16T01:51:09;5.03;;;1.65;;
26908;SDS011;14477;51.038;4.588;2024-01-16T01:53:38;5.00;;;1.90;;
26908;SDS011;14477;51.038;4.588;2024-01-16T01:56:07;3.17;;;1.40;;
26908;SDS011;14477;51.038;4.588;2024-01-16T01:58:36;3.95;;;1.65;;
26908;SDS011;14477;51.038;4.588;2024-01-16T02:01:06;3.13;;;1.42;;
26908;SDS011;14477;51.038;4.588;2024-01-16T02:03:44;4.90;;;1.40;;
26908;SDS011;14477;51.038;4.588;2024-01-16T02:06:11;4.77;;;1.70;;
26908;SDS011;14477;51.038;4.588;2024-01-16T02:08:40;3.67;;;1.40;;
26908;SDS011;14477;51.038;4.588;2024-01-16T02:11:06;5.07;;;1.50;;
26908;SDS011;14477;51.038;4.588;2024-01-16T02:13:32;3.38;;;1.50;;
26908;SDS011;14477;51.038;4.588;2024-01-16T02:15:58;2.67;;;1.13;;
26908;SDS011;14477;51.038;4.588;2024-01-16T02:18:24;3.42;;;1.30;;
26908;SDS011;14477;51.038;4.588;2024-01-16T02:20:50;3.35;;;1.20;;
26908;SDS011;14477;51.038;4.588;2024-01-16T02:23:21;2.38;;;1.23;;
26908;SDS011;14477;51.038;4.588;2024-01-16T02:25:54;5.23;;;1.30;;
26908;SDS011;14477;51.038;4.588;2024-01-16T02:28:20;2.50;;;1.10;;
26908;SDS011;14477;51.038;4.588;2024-01-16T02:30:46;2.83;;;1.10;;
26908;SDS011;14477;51.038;4.588;2024-01-16T02:33:11;1.97;;;0.97;;
26908;SDS011;14477;51.038;4.588;2024-01-16T02:35:37;3.40;;;1.30;;
26908;SDS011;14477;51.038;4.588;2024-01-16T02:38:04;4.30;;;1.40;;
26908;SDS011;14477;51.038;4.588;2024-01-16T02:40:30;2.75;;;1.15;;
26908;SDS011;14477;51.038;4.588;2024-01-16T02:42:55;2.53;;;1.40;;
26908;SDS011;14477;51.038;4.588;2024-01-16T02:45:21;2.97;;;1.38;;
26908;SDS011;14477;51.038;4.588;2024-01-16T02:47:47;4.97;;;1.20;;
26908;SDS011;14477;51.038;4.588;2024-01-16T02:50:13;3.10;;;1.20;;
26908;SDS011;14477;51.038;4.588;2024-01-16T02:52:39;3.85;;;1.40;;
26908;SDS011;14477;51.038;4.588;2024-01-16T02:55:05;2.90;;;1.10;;
26908;SDS011;14477;51.038;4.588;2024-01-16T02:57:31;2.03;;;1.00;;
26908;SDS011;14477;51.038;4.588;2024-01-16T02:59:57;3.30;;;1.40;;
26908;SDS011;14477;51.038;4.588;2024-01-16T03:02:23;2.63;;;1.30;;
26908;SDS011;14477;51.038;4.588;2024-01-16T03:04:48;3.13;;;1.10;;
26908;SDS011;14477;51.038;4.588;2024-01-16T03:07:15;3.88;;;1.10;;
26908;SDS011;14477;51.038;4.588;2024-01-16T03:09:40;4.07;;;1.40;;
26908;SDS011;14477;51.038;4.588;2024-01-16T03:12:06;2.08;;;1.10;;
26908;SDS011;14477;51.038;4.588;2024-01-16T03:14:32;1.80;;;1.00;;
26908;SDS011;14477;51.038;4.588;2024-01-16T03:17:02;2.33;;;1.30;;
26908;SDS011;14477;51.038;4.588;2024-01-16T03:19:28;2.45;;;1.30;;
26908;SDS011;14477;51.038;4.588;2024-01-16T03:21:54;2.83;;;1.20;;
26908;SDS011;14477;51.038;4.588;2024-01-16T03:24:20;3.95;;;1.40;;
26908;SDS011;14477;51.038;4.588;2024-01-16T03:26:47;2.47;;;1.08;;
26908;SDS011;14477;51.038;4.588;2024-01-16T03:29:13;1.75;;;1.10;;
26908;SDS011;14477;51.038;4.588;2024-01-16T03:31:39;4.83;;;1.73;;
26908;SDS011;14477;51.038;4.588;2024-01-16T03:34:04;3.72;;;1.52;;
26908;SDS011;14477;51.038;4.588;2024-01-16T03:36:30;5.27;;;1.57;;
26908;SDS011;14477;51.038;4.588;2024-01-16T03:38:56;3.20;;;1.23;;
26908;SDS011;14477;51.038;4.588;2024-01-16T03:41:22;2.92;;;1.23;;
26908;SDS011;14477;51.038;4.588;2024-01-16T03:43:47;2.23;;;1.07;;
26908;SDS011;14477;51.038;4.588;2024-01-16T03:46:13;2.90;;;1.20;;
26908;SDS011;14477;51.038;4.588;2024-01-16T03:48:38;3.65;;;1.38;;
26908;SDS011;14477;51.038;4.588;2024-01-16T03:51:04;2.20;;;1.30;;
26908;SDS011;14477;51.038;4.588;2024-01-16T03:53:31;3.40;;;1.30;;
26908;SDS011;14477;51.038;4.588;2024-01-16T03:55:57;4.07;;;1.65;;
26908;SDS011;14477;51.038;4.588;2024-01-16T03:58:23;2.60;;;1.20;;
26908;SDS011;14477;51.038;4.588;2024-01-16T04:00:49;3.83;;;1.27;;
26908;SDS011;14477;51.038;4.588;2024-01-16T04:03:16;4.45;;;1.20;;
26908;SDS011;14477;51.038;4.588;2024-01-16T04:05:42;4.68;;;1.50;;
26908;SDS011;14477;51.038;4.588;2024-01-16T04:08:08;2.38;;;1.20;;
26908;SDS011;14477;51.038;4.588;2024-01-16T04:10:34;6.07;;;1.60;;
26908;SDS011;14477;51.038;4.588;2024-01-16T04:13:00;4.25;;;1.55;;
26908;SDS011;14477;51.038;4.588;2024-01-16T04:15:26;3.08;;;1.30;;
26908;SDS011;14477;51.038;4.588;2024-01-16T04:17:53;4.60;;;1.58;;
26908;SDS011;14477;51.038;4.588;2024-01-16T04:20:19;3.50;;;1.30;;
26908;SDS011;14477;51.038;4.588;2024-01-16T04:22:45;3.55;;;1.38;;
26908;SDS011;14477;51.038;4.588;2024-01-16T04:25:12;3.33;;;1.30;;
26908;SDS011;14477;51.038;4.588;2024-01-16T04:27:38;4.93;;;1.70;;
26908;SDS011;14477;51.038;4.588;2024-01-16T04:30:04;3.40;;;1.30;;
26908;SDS011;14477;51.038;4.588;2024-01-16T04:32:30;3.88;;;1.48;;
26908;SDS011;14477;51.038;4.588;2024-01-16T04:34:56;3.33;;;1.40;;
26908;SDS011;14477;51.038;4.588;2024-01-16T04:37:21;3.03;;;1.30;;
26908;SDS011;14477;51.038;4.588;2024-01-16T04:39:47;3.58;;;1.65;;
26908;SDS011;14477;51.038;4.588;2024-01-16T04:42:13;2.23;;;1.40;;
26908;SDS011;14477;51.038;4.588;2024-01-16T04:44:39;4.38;;;1.40;;
26908;SDS011;14477;51.038;4.588;2024-01-16T04:47:04;3.97;;;1.50;;
26908;SDS011;14477;51.038;4.588;2024-01-16T04:49:30;3.50;;;1.30;;
26908;SDS011;14477;51.038;4.588;2024-01-16T04:51:56;3.70;;;1.30;;
26908;SDS011;14477;51.038;4.588;2024-01-16T04:54:22;2.60;;;1.38;;
26908;SDS011;14477;51.038;4.588;2024-01-16T04:56:47;2.30;;;1.10;;
26908;SDS011;14477;51.038;4.588;2024-01-16T04:59:13;1.88;;;1.20;;
26908;SDS011;14477;51.038;4.588;2024-01-16T05:01:38;4.57;;;1.73;;
26908;SDS011;14477;51.038;4.588;2024-01-16T05:04:04;9.35;;;1.67;;
26908;SDS011;14477;51.038;4.588;2024-01-16T05:06:32;4.78;;;1.70;;
26908;SDS011;14477;51.038;4.588;2024-01-16T05:08:59;3.33;;;1.53;;
26908;SDS011;14477;51.038;4.588;2024-01-16T05:11:25;3.95;;;2.30;;
26908;SDS011;14477;51.038;4.588;2024-01-16T05:13:51;4.97;;;1.73;;
26908;SDS011;14477;51.038;4.588;2024-01-16T05:16:22;4.15;;;1.70;;
26908;SDS011;14477;51.038;4.588;2024-01-16T05:18:51;3.03;;;1.38;;
26908;SDS011;14477;51.038;4.588;2024-01-16T05:21:18;3.60;;;1.75;;
26908;SDS011;14477;51.038;4.588;2024-01-16T05:23:43;3.67;;;1.50;;
26908;SDS011;14477;51.038;4.588;2024-01-16T05:26:09;4.10;;;1.50;;
26908;SDS011;14477;51.038;4.588;2024-01-16T05:28:35;4.32;;;1.92;;
26908;SDS011;14477;51.038;4.588;2024-01-16T05:31:00;3.63;;;1.73;;
26908;SDS011;14477;51.038;4.588;2024-01-16T05:33:27;4.15;;;1.70;;
26908;SDS011;14477;51.038;4.588;2024-01-16T05:35:52;3.40;;;1.57;;
26908;SDS011;14477;51.038;4.588;2024-01-16T05:38:18;4.43;;;1.77;;
26908;SDS011;14477;51.038;4.588;2024-01-16T05:40:44;2.93;;;1.50;;
26908;SDS011;14477;51.038;4.588;2024-01-16T05:43:10;3.35;;;1.58;;
26908;SDS011;14477;51.038;4.588;2024-01-16T05:45:35;4.63;;;1.80;;
26908;SDS011;14477;51.038;4.588;2024-01-16T05:48:01;4.40;;;1.80;;
26908;SDS011;14477;51.038;4.588;2024-01-16T05:50:27;3.83;;;1.52;;
26908;SDS011;14477;51.038;4.588;2024-01-16T05:52:53;7.57;;;3.13;;
26908;SDS011;14477;51.038;4.588;2024-01-16T05:55:19;7.65;;;2.90;;
26908;SDS011;14477;51.038;4.588;2024-01-16T05:57:46;10.18;;;4.10;;
26908;SDS011;14477;51.038;4.588;2024-01-16T06:00:12;8.67;;;3.60;;
26908;SDS011;14477;51.038;4.588;2024-01-16T06:02:38;7.13;;;2.75;;
26908;SDS011;14477;51.038;4.588;2024-01-16T06:05:04;5.40;;;2.63;;
26908;SDS011;14477;51.038;4.588;2024-01-16T06:07:30;6.77;;;2.60;;
26908;SDS011;14477;51.038;4.588;2024-01-16T06:09:56;4.57;;;2.22;;
26908;SDS011;14477;51.038;4.588;2024-01-16T06:12:22;7.90;;;2.80;;
26908;SDS011;14477;51.038;4.588;2024-01-16T06:14:47;7.75;;;3.28;;
26908;SDS011;14477;51.038;4.588;2024-01-16T06:17:13;8.23;;;3.00;;
26908;SDS011;14477;51.038;4.588;2024-01-16T06:19:39;8.30;;;3.10;;
26908;SDS011;14477;51.038;4.588;2024-01-16T06:22:04;5.67;;;2.60;;
26908;SDS011;14477;51.038;4.588;2024-01-16T06:24:30;6.15;;;2.05;;
26908;SDS011;14477;51.038;4.588;2024-01-16T06:27:01;5.40;;;1.67;;
26908;SDS011;14477;51.038;4.588;2024-01-16T06:29:29;7.15;;;3.08;;
26908;SDS011;14477;51.038;4.588;2024-01-16T06:31:55;6.78;;;2.95;;
26908;SDS011;14477;51.038;4.588;2024-01-16T06:34:20;6.53;;;2.60;;
26908;SDS011;14477;51.038;4.588;2024-01-16T06:36:46;7.00;;;2.70;;
26908;SDS011;14477;51.038;4.588;2024-01-16T06:39:12;3.90;;;1.93;;
26908;SDS011;14477;51.038;4.588;2024-01-16T06:41:40;8.13;;;2.65;;
26908;SDS011;14477;51.038;4.588;2024-01-16T06:44:06;4.93;;;2.20;;
26908;SDS011;14477;51.038;4.588;2024-01-16T06:46:32;5.33;;;2.40;;
26908;SDS011;14477;51.038;4.588;2024-01-16T06:48:57;6.40;;;2.28;;
26908;SDS011;14477;51.038;4.588;2024-01-16T06:51:23;5.27;;;2.30;;
26908;SDS011;14477;51.038;4.588;2024-01-16T06:53:49;4.63;;;1.85;;
26908;SDS011;14477;51.038;4.588;2024-01-16T06:56:14;4.77;;;2.10;;
26908;SDS011;14477;51.038;4.588;2024-01-16T06:58:40;5.73;;;1.80;;
26908;SDS011;14477;51.038;4.588;2024-01-16T07:01:06;5.53;;;1.70;;
26908;SDS011;14477;51.038;4.588;2024-01-16T07:03:33;5.32;;;2.00;;
26908;SDS011;14477;51.038;4.588;2024-01-16T07:05:59;5.13;;;2.07;;
26908;SDS011;14477;51.038;4.588;2024-01-16T07:08:25;5.93;;;2.10;;
26908;SDS011;14477;51.038;4.588;2024-01-16T07:10:51;4.70;;;1.93;;
26908;SDS011;14477;51.038;4.588;2024-01-16T07:13:17;4.25;;;1.90;;
26908;SDS011;14477;51.038;4.588;2024-01-16T07:15:42;4.22;;;2.15;;
26908;SDS011;14477;51.038;4.588;2024-01-16T07:18:08;7.37;;;2.03;;
26908;SDS011;14477;51.038;4.588;2024-01-16T07:20:34;6.10;;;2.10;;
26908;SDS011;14477;51.038;4.588;2024-01-16T07:23:01;4.77;;;1.90;;
26908;SDS011;14477;51.038;4.588;2024-01-16T07:25:27;5.72;;;2.30;;
26908;SDS011;14477;51.038;4.588;2024-01-16T07:27:53;7.05;;;2.28;;
26908;SDS011;14477;51.038;4.588;2024-01-16T07:30:19;6.77;;;1.97;;
26908;SDS011;14477;51.038;4.588;2024-01-16T07:32:44;4.25;;;1.77;;
26908;SDS011;14477;51.038;4.588;2024-01-16T07:35:10;5.33;;;2.43;;
26908;SDS011;14477;51.038;4.588;2024-01-16T07:37:36;6.40;;;2.28;;
26908;SDS011;14477;51.038;4.588;2024-01-16T07:40:02;8.30;;;3.03;;
26908;SDS011;14477;51.038;4.588;2024-01-16T07:42:31;8.32;;;3.20;;
26908;SDS011;14477;51.038;4.588;2024-01-16T07:44:59;7.75;;;2.95;;
26908;SDS011;14477;51.038;4.588;2024-01-16T07:47:29;9.23;;;2.50;;
26908;SDS011;14477;51.038;4.588;2024-01-16T07:49:58;6.63;;;2.40;;
26908;SDS011;14477;51.038;4.588;2024-01-16T07:52:25;5.28;;;2.17;;
26908;SDS011;14477;51.038;4.588;2024-01-16T07:54:52;6.95;;;2.75;;
26908;SDS011;14477;51.038;4.588;2024-01-16T07:57:17;4.80;;;1.87;;
26908;SDS011;14477;51.038;4.588;2024-01-16T07:59:44;9.67;;;2.10;;
26908;SDS011;14477;51.038;4.588;2024-01-16T08:02:09;6.00;;;2.33;;
26908;SDS011;14477;51.038;4.588;2024-01-16T08:04:35;5.73;;;2.60;;
26908;SDS011;14477;51.038;4.588;2024-01-16T08:07:01;6.90;;;2.38;;
26908;SDS011;14477;51.038;4.588;2024-01-16T08:09:27;5.32;;;2.22;;
26908;SDS011;14477;51.038;4.588;2024-01-16T08:11:52;7.53;;;2.60;;
26908;SDS011;14477;51.038;4.588;2024-01-16T08:14:18;5.93;;;2.20;;
26908;SDS011;14477;51.038;4.588;2024-01-16T08:16:44;4.60;;;2.50;;
26908;SDS011;14477;51.038;4.588;2024-01-16T08:19:09;4.25;;;1.83;;
26908;SDS011;14477;51.038;4.588;2024-01-16T08:21:35;4.57;;;2.23;;
26908;SDS011;14477;51.038;4.588;2024-01-16T08:24:01;7.18;;;2.63;;
26908;SDS011;14477;51.038;4.588;2024-01-16T08:26:27;4.20;;;2.30;;
26908;SDS011;14477;51.038;4.588;2024-01-16T08:28:53;4.90;;;2.10;;
26908;SDS011;14477;51.038;4.588;2024-01-16T08:31:20;4.68;;;2.20;;
26908;SDS011;14477;51.038;4.588;2024-01-16T08:33:46;4.00;;;1.75;;
26908;SDS011;14477;51.038;4.588;2024-01-16T08:36:12;6.07;;;2.40;;
26908;SDS011;14477;51.038;4.588;2024-01-16T08:38:39;5.35;;;2.25;;
26908;SDS011;14477;51.038;4.588;2024-01-16T08:41:05;6.95;;;2.20;;
26908;SDS011;14477;51.038;4.588;2024-01-16T08:43:34;9.93;;;3.53;;
26908;SDS011;14477;51.038;4.588;2024-01-16T08:46:00;6.45;;;2.90;;
26908;SDS011;14477;51.038;4.588;2024-01-16T08:48:26;7.57;;;3.23;;
26908;SDS011;14477;51.038;4.588;2024-01-16T08:50:52;8.45;;;3.30;;
26908;SDS011;14477;51.038;4.588;2024-01-16T08:53:19;9.10;;;3.83;;
26908;SDS011;14477;51.038;4.588;2024-01-16T08:55:48;5.72;;;2.60;;
26908;SDS011;14477;51.038;4.588;2024-01-16T08:58:13;4.88;;;2.35;;
26908;SDS011;14477;51.038;4.588;2024-01-16T09:00:39;6.87;;;2.67;;
26908;SDS011;14477;51.038;4.588;2024-01-16T09:03:05;4.35;;;2.05;;
26908;SDS011;14477;51.038;4.588;2024-01-16T09:05:31;4.00;;;2.10;;
26908;SDS011;14477;51.038;4.588;2024-01-16T09:07:56;4.90;;;1.90;;
26908;SDS011;14477;51.038;4.588;2024-01-16T09:10:22;5.50;;;2.10;;
26908;SDS011;14477;51.038;4.588;2024-01-16T09:12:48;5.85;;;2.50;;
26908;SDS011;14477;51.038;4.588;2024-01-16T09:15:14;4.10;;;2.20;;
26908;SDS011;14477;51.038;4.588;2024-01-16T09:17:40;5.97;;;2.50;;
26908;SDS011;14477;51.038;4.588;2024-01-16T09:20:06;3.33;;;1.77;;
26908;SDS011;14477;51.038;4.588;2024-01-16T09:22:32;5.30;;;2.70;;
26908;SDS011;14477;51.038;4.588;2024-01-16T09:24:58;5.25;;;2.60;;
26908;SDS011;14477;51.038;4.588;2024-01-16T09:27:24;6.72;;;2.30;;
26908;SDS011;14477;51.038;4.588;2024-01-16T09:29:50;4.57;;;2.30;;
26908;SDS011;14477;51.038;4.588;2024-01-16T09:32:16;4.43;;;2.00;;
26908;SDS011;14477;51.038;4.588;2024-01-16T09:34:41;4.63;;;2.30;;
26908;SDS011;14477;51.038;4.588;2024-01-16T09:37:07;4.43;;;2.10;;
26908;SDS011;14477;51.038;4.588;2024-01-16T09:39:33;4.70;;;1.87;;
26908;SDS011;14477;51.038;4.588;2024-01-16T09:42:00;6.18;;;2.67;;
26908;SDS011;14477;51.038;4.588;2024-01-16T09:44:29;5.20;;;2.30;;
26908;SDS011;14477;51.038;4.588;2024-01-16T09:46:55;3.77;;;2.10;;
26908;SDS011;14477;51.038;4.588;2024-01-16T09:49:22;4.15;;;1.90;;
26908;SDS011;14477;51.038;4.588;2024-01-16T09:51:48;4.38;;;2.13;;
26908;SDS011;14477;51.038;4.588;2024-01-16T09:54:14;5.27;;;1.83;;
26908;SDS011;14477;51.038;4.588;2024-01-16T09:56:43;3.30;;;1.80;;
26908;SDS011;14477;51.038;4.588;2024-01-16T09:59:10;5.43;;;2.40;;
26908;SDS011;14477;51.038;4.588;2024-01-16T10:01:43;6.93;;;2.40;;
26908;SDS011;14477;51.038;4.588;2024-01-16T10:04:09;4.10;;;2.20;;
26908;SDS011;14477;51.038;4.588;2024-01-16T10:06:35;4.30;;;2.22;;
26908;SDS011;14477;51.038;4.588;2024-01-16T10:09:03;4.90;;;2.30;;
26908;SDS011;14477;51.038;4.588;2024-01-16T10:11:29;4.07;;;2.50;;
26908;SDS011;14477;51.038;4.588;2024-01-16T10:13:58;3.78;;;1.90;;
26908;SDS011;14477;51.038;4.588;2024-01-16T10:16:41;3.40;;;1.88;;
26908;SDS011;14477;51.038;4.588;2024-01-16T10:19:30;2.90;;;1.77;;
26908;SDS011;14477;51.038;4.588;2024-01-16T10:22:03;3.83;;;1.80;;
26908;SDS011;14477;51.038;4.588;2024-01-16T10:24:29;3.05;;;1.80;;
26908;SDS011;14477;51.038;4.588;2024-01-16T10:26:59;3.58;;;1.77;;
26908;SDS011;14477;51.038;4.588;2024-01-16T10:29:27;4.28;;;2.08;;
26908;SDS011;14477;51.038;4.588;2024-01-16T10:31:53;2.83;;;1.70;;
26908;SDS011;14477;51.038;4.588;2024-01-16T10:34:22;4.93;;;1.95;;
26908;SDS011;14477;51.038;4.588;2024-01-16T10:36:49;5.70;;;2.33;;
26908;SDS011;14477;51.038;4.588;2024-01-16T10:39:17;2.70;;;1.95;;
26908;SDS011;14477;51.038;4.588;2024-01-16T10:42:04;3.30;;;2.10;;
26908;SDS011;14477;51.038;4.588;2024-01-16T10:44:29;3.08;;;1.95;;
26908;SDS011;14477;51.038;4.588;2024-01-16T10:47:09;4.75;;;2.13;;
26908;SDS011;14477;51.038;4.588;2024-01-16T10:49:37;3.85;;;1.75;;
26908;SDS011;14477;51.038;4.588;2024-01-16T10:52:03;4.37;;;1.80;;
26908;SDS011;14477;51.038;4.588;2024-01-16T10:54:34;3.35;;;1.80;;
26908;SDS011;14477;51.038;4.588;2024-01-16T10:57:02;2.80;;;1.70;;
26908;SDS011;14477;51.038;4.588;2024-01-16T10:59:39;3.55;;;1.92;;
26908;SDS011;14477;51.038;4.588;2024-01-16T11:02:11;2.83;;;2.00;;
26908;SDS011;14477;51.038;4.588;2024-01-16T11:04:40;2.70;;;1.47;;
26908;SDS011;14477;51.038;4.588;2024-01-16T11:07:08;2.80;;;1.70;;
26908;SDS011;14477;51.038;4.588;2024-01-16T11:09:34;3.15;;;1.50;;
26908;SDS011;14477;51.038;4.588;2024-01-16T11:12:00;2.72;;;1.65;;
26908;SDS011;14477;51.038;4.588;2024-01-16T11:14:27;3.08;;;1.55;;
26908;SDS011;14477;51.038;4.588;2024-01-16T11:16:55;3.57;;;1.80;;
26908;SDS011;14477;51.038;4.588;2024-01-16T11:19:22;2.83;;;1.65;;
26908;SDS011;14477;51.038;4.588;2024-01-16T11:21:49;3.67;;;1.90;;
26908;SDS011;14477;51.038;4.588;2024-01-16T11:24:15;4.55;;;1.90;;
26908;SDS011;14477;51.038;4.588;2024-01-16T11:26:41;3.60;;;1.50;;
26908;SDS011;14477;51.038;4.588;2024-01-16T11:31:51;3.90;;;1.55;;
26908;SDS011;14477;51.038;4.588;2024-01-16T11:34:22;2.87;;;1.63;;
26908;SDS011;14477;51.038;4.588;2024-01-16T11:37:06;3.25;;;1.60;;
26908;SDS011;14477;51.038;4.588;2024-01-16T11:39:32;2.60;;;1.40;;
26908;SDS011;14477;51.038;4.588;2024-01-16T11:41:59;3.10;;;1.60;;
26908;SDS011;14477;51.038;4.588;2024-01-16T11:47:05;2.28;;;1.30;;
26908;SDS011;14477;51.038;4.588;2024-01-16T11:49:31;3.17;;;1.52;;
26908;SDS011;14477;51.038;4.588;2024-01-16T11:51:58;2.92;;;1.80;;
26908;SDS011;14477;51.038;4.588;2024-01-16T11:54:24;2.87;;;1.60;;
26908;SDS011;14477;51.038;4.588;2024-01-16T12:02:14;4.13;;;1.45;;
26908;SDS011;14477;51.038;4.588;2024-01-16T12:04:51;2.83;;;1.50;;
26908;SDS011;14477;51.038;4.588;2024-01-16T12:07:28;3.10;;;1.30;;
26908;SDS011;14477;51.038;4.588;2024-01-16T12:09:58;3.30;;;1.48;;
26908;SDS011;14477;51.038;4.588;2024-01-16T12:12:26;3.00;;;1.50;;
26908;SDS011;14477;51.038;4.588;2024-01-16T12:14:52;2.07;;;1.30;;
26908;SDS011;14477;51.038;4.588;2024-01-16T12:17:18;3.15;;;1.42;;
26908;SDS011;14477;51.038;4.588;2024-01-16T12:19:45;2.95;;;1.50;;
26908;SDS011;14477;51.038;4.588;2024-01-16T12:22:15;2.10;;;1.40;;
26908;SDS011;14477;51.038;4.588;2024-01-16T12:24:46;2.95;;;1.38;;
26908;SDS011;14477;51.038;4.588;2024-01-16T12:27:12;2.80;;;1.30;;
26908;SDS011;14477;51.038;4.588;2024-01-16T12:29:38;2.35;;;1.23;;
26908;SDS011;14477;51.038;4.588;2024-01-16T12:34:38;3.83;;;1.50;;
26908;SDS011;14477;51.038;4.588;2024-01-16T12:37:17;3.20;;;1.30;;
26908;SDS011;14477;51.038;4.588;2024-01-16T12:39:43;3.20;;;1.50;;
26908;SDS011;14477;51.038;4.588;2024-01-16T12:42:09;4.23;;;1.50;;
26908;SDS011;14477;51.038;4.588;2024-01-16T12:44:36;2.50;;;1.30;;
26908;SDS011;14477;51.038;4.588;2024-01-16T12:47:02;3.38;;;1.50;;
26908;SDS011;14477;51.038;4.588;2024-01-16T12:49:28;3.25;;;1.40;;
26908;SDS011;14477;51.038;4.588;2024-01-16T12:54:43;3.00;;;1.30;;
26908;SDS011;14477;51.038;4.588;2024-01-16T12:57:10;2.72;;;1.40;;
26908;SDS011;14477;51.038;4.588;2024-01-16T12:59:41;4.00;;;1.48;;
26908;SDS011;14477;51.038;4.588;2024-01-16T13:02:07;2.87;;;1.50;;
26908;SDS011;14477;51.038;4.588;2024-01-16T13:04:32;2.33;;;1.58;;
26908;SDS011;14477;51.038;4.588;2024-01-16T13:07:04;3.17;;;1.50;;
26908;SDS011;14477;51.038;4.588;2024-01-16T13:09:31;2.95;;;1.50;;
26908;SDS011;14477;51.038;4.588;2024-01-16T13:11:56;4.15;;;1.60;;
26908;SDS011;14477;51.038;4.588;2024-01-16T13:14:24;2.35;;;1.17;;
26908;SDS011;14477;51.038;4.588;2024-01-16T13:16:50;3.57;;;1.30;;
26908;SDS011;14477;51.038;4.588;2024-01-16T13:19:20;2.72;;;1.60;;
26908;SDS011;14477;51.038;4.588;2024-01-16T13:21:46;3.08;;;1.48;;
26908;SDS011;14477;51.038;4.588;2024-01-16T13:24:12;2.90;;;1.25;;
26908;SDS011;14477;51.038;4.588;2024-01-16T13:26:38;4.32;;;1.55;;
26908;SDS011;14477;51.038;4.588;2024-01-16T13:29:04;3.57;;;1.20;;
26908;SDS011;14477;51.038;4.588;2024-01-16T13:31:31;3.92;;;1.20;;
26908;SDS011;14477;51.038;4.588;2024-01-16T13:33:57;2.97;;;1.35;;
26908;SDS011;14477;51.038;4.588;2024-01-16T13:36:23;2.92;;;1.30;;
26908;SDS011;14477;51.038;4.588;2024-01-16T13:38:49;3.70;;;1.10;;
26908;SDS011;14477;51.038;4.588;2024-01-16T13:41:15;1.75;;;1.20;;
26908;SDS011;14477;51.038;4.588;2024-01-16T13:43:41;3.03;;;1.63;;
26908;SDS011;14477;51.038;4.588;2024-01-16T13:46:06;4.13;;;1.60;;
26908;SDS011;14477;51.038;4.588;2024-01-16T13:48:34;4.00;;;1.20;;
26908;SDS011;14477;51.038;4.588;2024-01-16T13:50:59;3.22;;;1.55;;
26908;SDS011;14477;51.038;4.588;2024-01-16T13:53:25;3.20;;;1.50;;
26908;SDS011;14477;51.038;4.588;2024-01-16T13:55:52;3.78;;;1.10;;
26908;SDS011;14477;51.038;4.588;2024-01-16T13:58:18;2.33;;;1.20;;
26908;SDS011;14477;51.038;4.588;2024-01-16T14:00:44;3.03;;;1.33;;
26908;SDS011;14477;51.038;4.588;2024-01-16T14:03:10;2.90;;;1.10;;
26908;SDS011;14477;51.038;4.588;2024-01-16T14:05:35;3.85;;;1.40;;
26908;SDS011;14477;51.038;4.588;2024-01-16T14:08:01;3.70;;;1.20;;
26908;SDS011;14477;51.038;4.588;2024-01-16T14:10:28;3.05;;;1.20;;
26908;SDS011;14477;51.038;4.588;2024-01-16T14:12:54;2.90;;;1.40;;
26908;SDS011;14477;51.038;4.588;2024-01-16T14:15:20;2.45;;;1.13;;
26908;SDS011;14477;51.038;4.588;2024-01-16T14:20:18;2.83;;;1.33;;
26908;SDS011;14477;51.038;4.588;2024-01-16T14:22:47;3.80;;;1.30;;
26908;SDS011;14477;51.038;4.588;2024-01-16T14:25:13;4.47;;;1.40;;
26908;SDS011;14477;51.038;4.588;2024-01-16T14:27:44;3.00;;;1.20;;
26908;SDS011;14477;51.038;4.588;2024-01-16T14:30:11;2.85;;;1.30;;
26908;SDS011;14477;51.038;4.588;2024-01-16T14:32:39;2.20;;;1.20;;
26908;SDS011;14477;51.038;4.588;2024-01-16T14:35:09;2.80;;;1.17;;
26908;SDS011;14477;51.038;4.588;2024-01-16T14:37:38;2.17;;;1.10;;
26908;SDS011;14477;51.038;4.588;2024-01-16T14:40:04;3.60;;;1.30;;
26908;SDS011;14477;51.038;4.588;2024-01-16T14:42:40;2.35;;;1.20;;
26908;SDS011;14477;51.038;4.588;2024-01-16T14:45:10;3.20;;;1.23;;
26908;SDS011;14477;51.038;4.588;2024-01-16T14:47:39;2.10;;;1.20;;
26908;SDS011;14477;51.038;4.588;2024-01-16T14:50:05;2.07;;;1.10;;
26908;SDS011;14477;51.038;4.588;2024-01-16T14:52:35;2.63;;;1.30;;
26908;SDS011;14477;51.038;4.588;2024-01-16T14:55:01;2.05;;;1.20;;
26908;SDS011;14477;51.038;4.588;2024-01-16T14:57:27;2.13;;;1.10;;
26908;SDS011;14477;51.038;4.588;2024-01-16T14:59:55;3.00;;;1.45;;
26908;SDS011;14477;51.038;4.588;2024-01-16T15:02:21;3.10;;;1.20;;
26908;SDS011;14477;51.038;4.588;2024-01-16T15:04:47;2.50;;;1.35;;
26908;SDS011;14477;51.038;4.588;2024-01-16T15:07:14;5.00;;;1.70;;